createdAt,value
2018-09-04T00:01:07.945Z,92.30
2018-09-04T00:03:40.557Z,92.30
2018-09-04T00:06:12.907Z,92.30
2018-09-04T00:08:45.143Z,92.20
2018-09-04T00:11:17.876Z,92.00
2018-09-04T00:13:50.444Z,92.10
2018-09-04T00:16:23.503Z,92.20
2018-09-04T00:18:56.121Z,92.10
2018-09-04T00:21:28.514Z,92.10
2018-09-04T00:24:02.300Z,92.20
2018-09-04T00:26:34.886Z,92.20
2018-09-04T00:29:07.648Z,91.90
2018-09-04T00:31:39.792Z,91.80
2018-09-04T00:34:12.340Z,91.80
2018-09-04T00:36:45.075Z,92.00
2018-09-04T00:39:16.982Z,92.00
2018-09-04T00:41:48.969Z,92.10
2018-09-04T00:44:21.018Z,91.70
2018-09-04T00:46:53.219Z,91.80
2018-09-04T00:49:25.166Z,91.90
2018-09-04T00:51:57.104Z,92.30
2018-09-04T00:54:29.663Z,91.80
2018-09-04T00:57:02.086Z,91.90
2018-09-04T00:59:34.380Z,91.90
2018-09-04T01:02:06.893Z,91.90
2018-09-04T01:04:39.435Z,91.80
2018-09-04T01:07:11.752Z,91.70
2018-09-04T01:09:43.931Z,91.70
2018-09-04T01:12:16.200Z,91.70
2018-09-04T01:14:48.357Z,91.80
2018-09-04T01:17:20.441Z,91.80
2018-09-04T01:19:52.394Z,91.90
2018-09-04T01:22:24.464Z,92.10
2018-09-04T01:24:56.659Z,92.20
2018-09-04T01:27:28.729Z,92.20
2018-09-04T01:30:00.933Z,92.30
2018-09-04T01:32:33.174Z,92.30
2018-09-04T01:35:05.594Z,92.30
2018-09-04T01:37:38.104Z,92.30
2018-09-04T01:40:10.158Z,92.40
2018-09-04T01:42:42.188Z,92.30
2018-09-04T01:45:14.400Z,92.10
2018-09-04T01:47:47.349Z,92.20
2018-09-04T01:50:19.671Z,92.20
2018-09-04T01:52:51.751Z,92.10
2018-09-04T01:55:23.833Z,92.00
2018-09-04T01:57:55.921Z,91.80
2018-09-04T02:00:28.281Z,91.80
2018-09-04T02:03:00.855Z,91.80
2018-09-04T02:05:33.041Z,91.80
2018-09-04T02:08:05.335Z,91.70
2018-09-04T02:10:37.627Z,91.80
2018-09-04T02:13:11.039Z,91.90
2018-09-04T02:15:43.251Z,91.90
2018-09-04T02:18:15.439Z,92.00
2018-09-04T02:20:47.400Z,92.00
2018-09-04T02:23:19.328Z,91.80
2018-09-04T02:25:51.413Z,92.00
2018-09-04T02:28:23.288Z,91.80
2018-09-04T02:30:55.529Z,91.80
2018-09-04T02:33:27.613Z,91.70
2018-09-04T02:35:59.677Z,91.40
2018-09-04T02:38:33.056Z,91.30
2018-09-04T02:41:05.684Z,91.30
2018-09-04T02:43:37.814Z,91.30
2018-09-04T02:46:10.054Z,91.30
2018-09-04T02:48:42.450Z,91.50
2018-09-04T02:51:14.618Z,91.70
2018-09-04T02:53:47.547Z,91.70
2018-09-04T02:56:20.107Z,91.50
2018-09-04T02:58:52.468Z,91.50
2018-09-04T03:01:24.681Z,91.60
2018-09-04T03:03:56.611Z,91.50
2018-09-04T03:06:29.619Z,91.70
2018-09-04T03:09:01.775Z,91.60
2018-09-04T03:11:34.044Z,91.50
2018-09-04T03:14:06.064Z,91.50
2018-09-04T03:16:38.526Z,91.70
2018-09-04T03:19:11.039Z,91.70
2018-09-04T03:21:43.274Z,91.70
2018-09-04T03:24:15.878Z,91.60
2018-09-04T03:26:49.816Z,91.90
2018-09-04T03:29:22.050Z,91.90
2018-09-04T03:31:54.085Z,91.90
2018-09-04T03:34:26.722Z,91.90
2018-09-04T03:36:59.068Z,92.10
2018-09-04T03:39:31.395Z,92.30
2018-09-04T03:42:03.420Z,92.60
2018-09-04T03:44:36.827Z,92.70
2018-09-04T03:47:09.251Z,92.80
2018-09-04T03:49:41.125Z,92.90
2018-09-04T03:52:13.169Z,92.90
2018-09-04T03:54:45.285Z,93.10
2018-09-04T03:57:17.488Z,93.30
2018-09-04T03:59:50.049Z,93.30
2018-09-04T04:02:24.366Z,93.10
2018-09-04T04:04:57.187Z,93.00
2018-09-04T04:07:29.473Z,92.90
2018-09-04T04:10:02.321Z,93.00
2018-09-04T04:12:34.794Z,92.90
2018-09-04T04:15:07.330Z,92.70
2018-09-04T04:17:39.302Z,92.70
2018-09-04T04:20:11.870Z,92.80
2018-09-04T04:22:44.175Z,92.90
2018-09-04T04:25:16.450Z,93.00
2018-09-04T04:27:48.725Z,93.00
2018-09-04T04:30:20.990Z,93.20
2018-09-04T04:32:53.539Z,93.30
2018-09-04T04:35:26.551Z,93.30
2018-09-04T04:37:58.905Z,93.10
2018-09-04T04:40:31.393Z,93.00
2018-09-04T04:43:04.118Z,92.90
2018-09-04T04:45:36.633Z,92.70
2018-09-04T04:48:09.657Z,92.70
2018-09-04T04:50:43.102Z,92.60
2018-09-04T04:53:15.226Z,92.80
2018-09-04T04:55:47.599Z,92.80
2018-09-04T04:58:20.502Z,92.70
2018-09-04T05:00:52.998Z,92.70
2018-09-04T05:03:26.561Z,92.70
2018-09-04T05:05:58.927Z,92.60
2018-09-04T05:08:30.897Z,92.70
2018-09-04T05:11:04.238Z,92.90
2018-09-04T05:13:36.622Z,93.30
2018-09-04T05:16:09.336Z,93.00
2018-09-04T05:18:41.764Z,93.00
2018-09-04T05:21:14.534Z,93.00
2018-09-04T05:23:47.180Z,93.10
2018-09-04T05:26:19.646Z,93.00
2018-09-04T05:28:52.087Z,93.00
2018-09-04T05:31:24.248Z,93.00
2018-09-04T05:33:56.762Z,92.80
2018-09-04T05:36:30.570Z,92.60
2018-09-04T05:39:03.165Z,92.50
2018-09-04T05:41:35.457Z,92.60
2018-09-04T05:44:07.405Z,92.20
2018-09-04T05:46:44.552Z,92.30
2018-09-04T05:49:19.465Z,92.40
2018-09-04T05:51:52.277Z,92.20
2018-09-04T05:54:24.777Z,92.20
2018-09-04T05:56:57.696Z,92.20
2018-09-04T05:59:30.009Z,91.50
2018-09-04T06:02:03.195Z,91.60
2018-09-04T06:04:35.647Z,91.80
2018-09-04T06:07:08.072Z,91.90
2018-09-04T06:09:40.522Z,92.00
2018-09-04T06:12:12.800Z,92.20
2018-09-04T06:14:45.582Z,91.80
2018-09-04T06:17:17.428Z,92.00
2018-09-04T06:19:49.985Z,92.10
2018-09-04T06:22:22.026Z,91.90
2018-09-04T06:24:55.089Z,91.50
2018-09-04T06:27:27.899Z,91.40
2018-09-04T06:30:00.522Z,91.20
2018-09-04T06:32:33.043Z,90.90
2018-09-04T06:35:05.374Z,91.10
2018-09-04T06:37:37.741Z,91.30
2018-09-04T06:40:10.223Z,91.20
2018-09-04T06:42:42.643Z,91.20
2018-09-04T06:45:14.972Z,91.10
2018-09-04T06:47:49.206Z,91.00
2018-09-04T06:50:21.976Z,90.70
2018-09-04T06:52:53.932Z,90.40
2018-09-04T06:55:26.603Z,90.10
2018-09-04T06:57:59.969Z,89.20
2018-09-04T07:00:32.412Z,88.50
2018-09-04T07:03:04.782Z,88.40
2018-09-04T07:05:37.110Z,88.90
2018-09-04T07:08:09.783Z,88.90
2018-09-04T07:10:42.466Z,88.30
2018-09-04T07:13:14.947Z,87.40
2018-09-04T07:15:47.469Z,86.00
2018-09-04T07:18:20.019Z,86.50
2018-09-04T07:20:52.589Z,87.10
2018-09-04T07:23:25.827Z,86.40
2018-09-04T07:25:58.800Z,86.20
2018-09-04T07:28:30.779Z,86.60
2018-09-04T07:31:03.529Z,86.50
2018-09-04T07:33:36.366Z,85.40
2018-09-04T07:36:09.011Z,85.40
2018-09-04T07:38:41.411Z,85.10
2018-09-04T07:41:14.608Z,85.20
2018-09-04T07:43:47.737Z,83.70
2018-09-04T07:46:20.149Z,82.80
2018-09-04T07:48:52.511Z,81.10
2018-09-04T07:51:25.298Z,80.40
2018-09-04T07:53:57.694Z,80.80
2018-09-04T07:56:30.222Z,75.80
2018-09-04T07:59:03.066Z,76.40
2018-09-04T08:01:35.660Z,75.90
2018-09-04T08:04:08.120Z,74.50
2018-09-04T08:06:40.532Z,75.40
2018-09-04T08:09:13.215Z,75.00
2018-09-04T08:11:45.629Z,73.80
2018-09-04T08:14:18.458Z,73.10
2018-09-04T08:16:51.451Z,71.80
2018-09-04T08:19:24.569Z,70.90
2018-09-04T08:21:57.052Z,70.40
2018-09-04T08:24:29.291Z,71.60
2018-09-04T08:27:01.493Z,70.30
2018-09-04T08:29:34.339Z,70.00
2018-09-04T08:32:06.665Z,69.10
2018-09-04T08:34:38.629Z,67.80
2018-09-04T08:37:11.103Z,66.80
2018-09-04T08:39:43.734Z,64.00
2018-09-04T08:42:16.209Z,65.10
2018-09-04T08:44:51.661Z,64.80
2018-09-04T08:47:24.174Z,66.40
2018-09-04T08:49:57.018Z,62.70
2018-09-04T08:52:29.012Z,62.40
2018-09-04T08:55:01.835Z,65.10
2018-09-04T08:57:34.504Z,64.70
2018-09-04T09:00:07.512Z,63.70
2018-09-04T09:02:40.563Z,60.90
2018-09-04T09:05:13.157Z,61.80
2018-09-04T09:07:45.539Z,61.10
2018-09-04T09:10:18.066Z,59.60
2018-09-04T09:12:51.718Z,59.70
2018-09-04T09:15:24.304Z,59.00
2018-09-04T09:18:12.293Z,57.40
2018-09-04T09:20:46.794Z,56.30
2018-09-04T09:23:19.678Z,55.80
2018-09-04T09:25:51.940Z,54.80
2018-09-04T09:28:24.946Z,55.10
2018-09-04T09:30:57.793Z,54.00
2018-09-04T09:33:30.006Z,53.00
2018-09-04T09:36:01.938Z,52.90
2018-09-04T09:38:34.666Z,53.70
2018-09-04T09:41:07.779Z,54.10
2018-09-04T09:43:40.222Z,52.20
2018-09-04T09:46:12.407Z,52.60
2018-09-04T09:48:44.682Z,53.10
2018-09-04T09:51:17.421Z,52.30
2018-09-04T09:53:50.052Z,52.50
2018-09-04T09:56:23.316Z,51.90
2018-09-04T09:58:57.065Z,52.80
2018-09-04T10:01:37.048Z,53.00
2018-09-04T10:04:10.239Z,52.20
2018-09-04T10:06:42.471Z,52.00
2018-09-04T10:09:15.348Z,52.50
2018-09-04T10:11:48.135Z,50.80
2018-09-04T10:14:21.096Z,51.90
2018-09-04T10:16:53.707Z,51.70
2018-09-04T10:19:25.785Z,50.90
2018-09-04T10:21:58.104Z,49.80
2018-09-04T10:24:30.377Z,50.40
2018-09-04T10:27:02.593Z,51.90
2018-09-04T10:29:35.070Z,50.90
2018-09-04T10:32:07.390Z,50.60
2018-09-04T10:34:39.699Z,51.00
2018-09-04T10:37:11.915Z,50.30
2018-09-04T10:39:49.215Z,50.60
2018-09-04T10:42:26.617Z,49.90
2018-09-04T10:44:58.729Z,49.30
2018-09-04T10:47:30.890Z,47.30
2018-09-04T10:50:03.399Z,48.10
2018-09-04T10:52:36.178Z,48.40
2018-09-04T10:55:08.885Z,48.90
2018-09-04T10:57:41.018Z,49.70
2018-09-04T11:00:14.710Z,47.10
2018-09-04T11:02:46.787Z,48.50
2018-09-04T11:05:19.370Z,47.20
2018-09-04T11:07:51.542Z,47.00
2018-09-04T11:10:23.926Z,46.40
2018-09-04T11:12:56.398Z,45.50
2018-09-04T11:15:29.006Z,44.80
2018-09-04T11:18:01.346Z,43.80
2018-09-04T11:20:33.700Z,44.30
2018-09-04T11:23:06.256Z,45.10
2018-09-04T11:25:39.359Z,45.20
2018-09-04T11:28:12.121Z,45.40
2018-09-04T11:30:44.563Z,45.30
2018-09-04T11:33:17.132Z,45.80
2018-09-04T11:35:49.198Z,46.20
2018-09-04T11:38:22.009Z,44.30
2018-09-04T11:40:54.035Z,43.80
2018-09-04T11:43:26.020Z,43.10
2018-09-04T11:45:58.201Z,44.30
2018-09-04T11:48:30.797Z,43.10
2018-09-04T11:51:03.710Z,43.80
2018-09-04T11:53:36.311Z,42.50
2018-09-04T11:56:08.428Z,43.50
2018-09-04T11:58:41.156Z,42.60
2018-09-04T12:01:15.283Z,43.70
2018-09-04T12:03:48.072Z,42.50
2018-09-04T12:06:20.244Z,43.00
2018-09-04T12:08:52.874Z,42.30
2018-09-04T12:11:25.657Z,43.30
2018-09-04T12:13:58.984Z,45.00
2018-09-04T12:16:31.473Z,46.00
2018-09-04T12:19:04.388Z,44.10
2018-09-04T12:21:37.370Z,44.90
2018-09-04T12:24:10.083Z,43.00
2018-09-04T12:26:42.601Z,44.70
2018-09-04T12:29:15.221Z,44.80
2018-09-04T12:31:47.736Z,43.90
2018-09-04T12:34:20.390Z,44.30
2018-09-04T12:36:52.820Z,43.60
2018-09-04T12:39:25.269Z,43.90
2018-09-04T12:41:57.796Z,43.50
2018-09-04T12:44:30.704Z,42.30
2018-09-04T12:47:03.330Z,41.00
2018-09-04T12:49:35.684Z,42.90
2018-09-04T12:52:08.174Z,43.00
2018-09-04T12:54:41.913Z,43.80
2018-09-04T12:57:14.502Z,43.30
2018-09-04T12:59:47.039Z,42.30
2018-09-04T13:02:19.198Z,42.90
2018-09-04T13:04:52.364Z,44.50
2018-09-04T13:07:24.917Z,44.70
2018-09-04T13:09:57.798Z,44.20
2018-09-04T13:12:30.203Z,43.10
2018-09-04T13:15:02.552Z,42.90
2018-09-04T13:17:35.102Z,44.30
2018-09-04T13:20:08.632Z,43.20
2018-09-04T13:22:42.180Z,43.90
2018-09-04T13:25:13.964Z,44.40
2018-09-04T13:27:45.943Z,43.80
2018-09-04T13:30:17.966Z,42.30
2018-09-04T13:32:50.873Z,43.80
2018-09-04T13:35:23.064Z,43.00
2018-09-04T13:37:55.213Z,43.00
2018-09-04T13:40:27.723Z,42.40
2018-09-04T13:42:59.661Z,43.00
2018-09-04T13:45:31.839Z,43.60
2018-09-04T13:48:04.588Z,42.60
2018-09-04T13:50:37.147Z,42.00
2018-09-04T13:53:09.380Z,43.60
2018-09-04T13:55:41.944Z,44.70
2018-09-04T13:58:14.121Z,45.30
2018-09-04T14:00:46.313Z,46.10
2018-09-04T14:03:18.661Z,45.50
2018-09-04T14:05:50.958Z,45.30
2018-09-04T14:08:23.917Z,44.70
2018-09-04T14:10:56.336Z,45.10
2018-09-04T14:13:28.850Z,43.50
2018-09-04T14:16:03.588Z,43.30
2018-09-04T14:18:35.735Z,43.00
2018-09-04T14:21:08.093Z,43.10
2018-09-04T14:23:40.594Z,43.90
2018-09-04T14:26:12.636Z,43.80
2018-09-04T14:28:44.775Z,43.80
2018-09-04T14:31:16.976Z,43.20
2018-09-04T14:33:49.113Z,44.00
2018-09-04T14:36:21.215Z,44.60
2018-09-04T14:38:53.244Z,44.70
2018-09-04T14:41:25.968Z,45.30
2018-09-04T14:43:58.468Z,46.10
2018-09-04T14:46:30.736Z,46.10
2018-09-04T14:49:03.944Z,46.40
2018-09-04T14:51:35.937Z,45.50
2018-09-04T14:54:08.156Z,45.70
2018-09-04T14:57:22.435Z,46.10
2018-09-04T14:59:54.746Z,47.80
2018-09-04T15:02:27.436Z,45.60
2018-09-04T15:04:59.601Z,46.00
2018-09-04T15:07:33.437Z,45.60
2018-09-04T15:10:06.773Z,45.80
2018-09-04T15:12:40.289Z,45.80
2018-09-04T15:15:12.814Z,46.10
2018-09-04T15:17:45.305Z,46.50
2018-09-04T15:20:18.573Z,45.90
2018-09-04T15:22:50.976Z,46.50
2018-09-04T15:25:23.684Z,45.90
2018-09-04T15:27:56.169Z,46.60
2018-09-04T15:30:28.726Z,46.30
2018-09-04T15:33:01.168Z,46.60
2018-09-04T15:35:33.180Z,46.60
2018-09-04T15:38:05.913Z,45.60
2018-09-04T15:40:38.407Z,46.90
2018-09-04T15:43:10.888Z,46.30
2018-09-04T15:45:43.402Z,46.90
2018-09-04T15:48:15.420Z,46.90
2018-09-04T15:50:47.918Z,47.00
2018-09-04T15:53:20.054Z,47.60
2018-09-04T15:55:52.906Z,46.90
2018-09-04T15:58:26.211Z,48.00
2018-09-04T16:00:58.626Z,48.10
2018-09-04T16:03:31.454Z,47.90
2018-09-04T16:06:03.829Z,47.70
2018-09-04T16:08:36.286Z,47.20
2018-09-04T16:11:08.675Z,47.70
2018-09-04T16:13:40.743Z,48.20
2018-09-04T16:16:12.930Z,48.50
2018-09-04T16:18:45.136Z,48.90
2018-09-04T16:21:17.297Z,49.20
2018-09-04T16:23:49.374Z,49.60
2018-09-04T16:26:21.737Z,50.10
2018-09-04T16:28:54.388Z,50.40
2018-09-04T16:31:27.101Z,51.10
2018-09-04T16:33:59.276Z,51.60
2018-09-04T16:36:31.419Z,52.30
2018-09-04T16:39:04.058Z,52.70
2018-09-04T16:41:36.259Z,52.90
2018-09-04T16:44:08.299Z,53.40
2018-09-04T16:46:41.227Z,54.50
2018-09-04T16:49:13.656Z,56.10
2018-09-04T16:51:45.768Z,56.90
2018-09-04T16:54:18.170Z,56.80
2018-09-04T16:56:50.554Z,56.50
2018-09-04T16:59:22.824Z,56.60
2018-09-04T17:01:55.684Z,57.30
2018-09-04T17:04:29.353Z,57.40
2018-09-04T17:07:02.416Z,58.00
2018-09-04T17:09:34.367Z,57.20
2018-09-04T17:12:06.859Z,59.00
2018-09-04T17:14:38.997Z,59.10
2018-09-04T17:17:12.102Z,60.00
2018-09-04T17:19:44.068Z,60.80
2018-09-04T17:22:16.074Z,61.70
2018-09-04T17:24:48.390Z,62.70
2018-09-04T17:27:20.384Z,62.80
2018-09-04T17:29:52.775Z,64.20
2018-09-04T17:32:25.239Z,64.30
2018-09-04T17:34:57.711Z,64.60
2018-09-04T17:37:30.109Z,65.10
2018-09-04T17:40:01.640Z,65.60
2018-09-04T17:42:34.185Z,66.00
2018-09-04T17:45:06.267Z,66.60
2018-09-04T17:47:38.388Z,67.00
2018-09-04T17:50:10.677Z,67.70
2018-09-04T17:52:42.537Z,67.10
2018-09-04T17:55:14.189Z,67.70
2018-09-04T17:57:46.500Z,68.00
2018-09-04T18:00:18.945Z,68.50
2018-09-04T18:02:51.335Z,68.80
2018-09-04T18:05:24.237Z,68.90
2018-09-04T18:07:56.308Z,69.60
2018-09-04T18:10:29.883Z,69.60
2018-09-04T18:13:01.895Z,69.70
2018-09-04T18:15:35.251Z,69.50
2018-09-04T18:18:07.594Z,69.80
2018-09-04T18:20:40.808Z,70.60
2018-09-04T18:23:13.001Z,70.30
2018-09-04T18:25:45.130Z,70.30
2018-09-04T18:28:17.529Z,70.90
2018-09-04T18:30:50.360Z,70.50
2018-09-04T18:33:23.011Z,70.60
2018-09-04T18:35:55.273Z,70.80
2018-09-04T18:38:27.980Z,70.80
2018-09-04T18:41:01.040Z,71.70
2018-09-04T18:43:33.880Z,71.90
2018-09-04T18:46:05.980Z,72.00
2018-09-04T18:48:37.778Z,72.20
2018-09-04T18:51:09.935Z,72.10
2018-09-04T18:53:43.091Z,72.20
2018-09-04T18:56:16.369Z,72.00
2018-09-04T18:58:48.717Z,72.40
2018-09-04T19:01:20.958Z,72.70
2018-09-04T19:03:53.388Z,73.50
2018-09-04T19:06:25.791Z,73.70
2018-09-04T19:08:58.048Z,74.00
2018-09-04T19:11:31.107Z,74.40
2018-09-04T19:14:03.532Z,74.70
2018-09-04T19:16:35.923Z,75.00
2018-09-04T19:19:08.318Z,75.60
2018-09-04T19:21:40.768Z,75.90
2018-09-04T19:24:13.952Z,75.80
2018-09-04T19:26:46.341Z,76.30
2018-09-04T19:29:18.952Z,76.10
2018-09-04T19:31:51.510Z,76.00
2018-09-04T19:34:23.762Z,75.90
2018-09-04T19:36:56.216Z,76.10
2018-09-04T19:39:28.608Z,76.40
2018-09-04T19:42:01.170Z,76.70
2018-09-04T19:44:33.276Z,77.20
2018-09-04T19:47:05.265Z,76.70
2018-09-04T19:49:38.159Z,76.70
2018-09-04T19:52:10.366Z,76.80
2018-09-04T19:54:42.780Z,77.00
2018-09-04T19:57:15.166Z,76.30
2018-09-04T19:59:47.418Z,77.40
2018-09-04T20:02:19.598Z,76.50
2018-09-04T20:04:51.898Z,77.30
2018-09-04T20:07:23.996Z,78.50
2018-09-04T20:09:56.120Z,77.90
2018-09-04T20:12:28.455Z,76.50
2018-09-04T20:15:00.487Z,75.80
2018-09-04T20:17:33.482Z,75.40
2018-09-04T20:20:05.667Z,75.30
2018-09-04T20:22:38.312Z,75.50
2018-09-04T20:25:10.562Z,75.10
2018-09-04T20:27:42.842Z,74.60
2018-09-04T20:30:14.933Z,74.60
2018-09-04T20:32:46.944Z,75.00
2018-09-04T20:35:18.939Z,75.30
2018-09-04T20:37:50.929Z,76.10
2018-09-04T20:40:24.303Z,76.60
2018-09-04T20:42:56.574Z,76.50
2018-09-04T20:45:29.018Z,77.50
2018-09-04T20:48:01.234Z,79.10
2018-09-04T20:50:33.896Z,78.80
2018-09-04T20:53:05.787Z,79.30
2018-09-04T20:55:37.730Z,79.60
2018-09-04T20:58:25.818Z,80.00
2018-09-04T21:01:14.728Z,80.10
2018-09-04T21:04:02.951Z,81.40
2018-09-04T21:06:45.061Z,81.30
2018-09-04T21:09:55.613Z,81.90
2018-09-04T21:12:27.944Z,82.40
2018-09-04T21:15:00.580Z,82.80
2018-09-04T21:17:32.842Z,83.00
2018-09-04T21:20:06.599Z,83.30
2018-09-04T21:22:39.475Z,83.80
2018-09-04T21:25:12.678Z,83.90
2018-09-04T21:27:45.956Z,84.90
2018-09-04T21:30:19.603Z,84.10
2018-09-04T21:32:52.622Z,84.00
2018-09-04T21:35:25.788Z,84.00
2018-09-04T21:37:59.451Z,83.50
2018-09-04T21:40:33.594Z,83.50
2018-09-04T21:43:06.483Z,83.30
2018-09-04T21:45:40.112Z,82.80
2018-09-04T21:48:13.197Z,82.40
2018-09-04T21:50:47.177Z,82.30
2018-09-04T21:53:19.900Z,81.40
2018-09-04T21:55:53.690Z,81.10
2018-09-04T21:58:26.461Z,80.30
2018-09-04T22:01:00.017Z,80.10
2018-09-04T22:03:34.916Z,80.30
2018-09-04T22:06:07.213Z,81.00
2018-09-04T22:08:40.472Z,81.20
2018-09-04T22:11:13.950Z,81.30
2018-09-04T22:13:46.590Z,81.60
2018-09-04T22:16:19.920Z,81.40
2018-09-04T22:18:52.481Z,81.10
2018-09-04T22:21:30.126Z,81.20
2018-09-04T22:24:03.631Z,81.20
2018-09-04T22:26:35.761Z,80.20
2018-09-04T22:29:10.214Z,81.20
2018-09-04T22:31:43.320Z,81.90
2018-09-04T22:34:16.305Z,82.30
2018-09-04T22:36:50.389Z,82.50
2018-09-04T22:39:22.977Z,82.70
2018-09-04T22:41:55.467Z,82.90
2018-09-04T22:44:28.249Z,83.30
2018-09-04T22:47:00.577Z,82.80
2018-09-04T22:49:34.784Z,82.30
2018-09-04T22:52:07.869Z,82.60
2018-09-04T22:54:40.468Z,82.70
2018-09-04T22:57:13.413Z,84.10
2018-09-04T22:59:46.047Z,84.60
2018-09-04T23:02:19.022Z,85.00
2018-09-04T23:04:53.240Z,85.50
2018-09-04T23:07:26.229Z,85.30
2018-09-04T23:09:59.579Z,85.30
2018-09-04T23:12:32.166Z,85.60
2018-09-04T23:15:06.256Z,85.20
2018-09-04T23:17:39.095Z,85.10
2018-09-04T23:20:11.747Z,85.50
2018-09-04T23:22:44.490Z,86.30
2018-09-04T23:25:16.910Z,86.40
2018-09-04T23:27:50.079Z,86.70
2018-09-04T23:30:24.091Z,86.70
2018-09-04T23:32:56.828Z,86.70
2018-09-04T23:35:30.493Z,87.20
2018-09-04T23:38:03.319Z,87.10
2018-09-04T23:40:37.493Z,87.20
2018-09-04T23:43:10.084Z,87.50
2018-09-04T23:45:44.050Z,87.70
2018-09-04T23:48:16.673Z,87.80
2018-09-04T23:50:49.492Z,87.50
2018-09-04T23:53:22.497Z,87.40
2018-09-04T23:55:55.625Z,87.60
2018-09-04T23:58:28.493Z,87.80
